Time;durP1;ratioP1;P1;durP2;ratioP2;P2;SDS_P1;SDS_P2;PMS_P1;PMS_P2;Temp;Humidity;BMP_temperature;BMP_pressure;BME280_temperature;BME280_humidity;BME280_pressure;Samples;Min_cycle;Max_cycle;Signal;HPM_P1;HPM_P2
2023/09/15 00:01:08;;;;;;;10.65;4.35;;;20.30;99.90;;;;;;5013890;28;20435;-72
2023/09/15 00:03:35;;;;;;;10.95;5.05;;;20.30;99.90;;;;;;5013463;28;20034;-71
2023/09/15 00:06:01;;;;;;;8.93;4.32;;;20.30;99.90;;;;;;5013083;28;20050;-72
2023/09/15 00:08:28;;;;;;;8.00;4.65;;;20.20;99.90;;;;;;5012839;28;20124;-71
2023/09/15 00:10:54;;;;;;;8.02;4.20;;;20.20;99.90;;;;;;5013425;28;20461;-72
2023/09/15 00:13:19;;;;;;;8.10;4.47;;;20.20;99.90;;;;;;5013684;28;20028;-70
2023/09/15 00:15:50;;;;;;;6.75;4.15;;;20.30;99.90;;;;;;5013532;28;20084;-71
2023/09/15 00:18:16;;;;;;;8.45;4.53;;;20.20;99.90;;;;;;5011000;28;20057;-72
2023/09/15 00:20:42;;;;;;;6.90;4.25;;;20.20;99.90;;;;;;5013389;28;20473;-73
2023/09/15 00:23:08;;;;;;;8.63;4.63;;;20.30;99.90;;;;;;5013362;28;20164;-73
2023/09/15 00:25:33;;;;;;;13.68;4.93;;;20.30;99.90;;;;;;5013549;28;20156;-72
2023/09/15 00:28:02;;;;;;;7.93;4.30;;;20.30;99.90;;;;;;5012549;28;20058;-70
2023/09/15 00:30:28;;;;;;;6.75;3.88;;;20.30;99.90;;;;;;4993946;28;20384;-74
2023/09/15 00:32:55;;;;;;;11.25;4.47;;;20.40;99.90;;;;;;5013260;28;20038;-71
2023/09/15 00:35:27;;;;;;;9.90;4.30;;;20.30;99.90;;;;;;4995044;28;20026;-72
2023/09/15 00:37:55;;;;;;;10.30;4.40;;;20.30;99.90;;;;;;5012908;28;20022;-74
2023/09/15 00:40:22;;;;;;;6.82;4.28;;;20.30;99.90;;;;;;4994629;28;20481;-72
2023/09/15 00:42:50;;;;;;;10.52;4.80;;;20.30;99.90;;;;;;4994536;28;20531;-72
2023/09/15 00:45:19;;;;;;;10.65;4.28;;;20.40;99.90;;;;;;4990677;28;20025;-72
2023/09/15 00:47:56;;;;;;;8.80;4.88;;;20.40;99.90;;;;;;5011744;28;20489;-72
2023/09/15 00:50:28;;;;;;;6.05;4.43;;;20.40;99.90;;;;;;5005107;28;20027;-72
2023/09/15 00:53:08;;;;;;;6.72;4.05;;;20.30;99.90;;;;;;5009595;28;20409;-71
2023/09/15 00:55:35;;;;;;;8.43;3.97;;;20.40;99.90;;;;;;5009786;28;20227;-72
2023/09/15 00:58:03;;;;;;;7.38;4.43;;;20.40;99.90;;;;;;4993018;28;20116;-72
2023/09/15 01:00:32;;;;;;;10.10;4.55;;;20.40;99.90;;;;;;4994755;28;20037;-72
2023/09/15 01:02:59;;;;;;;6.50;4.05;;;20.30;99.90;;;;;;4993983;28;20030;-73
2023/09/15 01:05:25;;;;;;;6.38;3.83;;;20.20;99.90;;;;;;4991624;28;20117;-72
2023/09/15 01:07:53;;;;;;;6.95;4.38;;;20.30;99.90;;;;;;5008544;28;20014;-72
2023/09/15 01:10:24;;;;;;;10.05;4.28;;;20.30;99.90;;;;;;5012141;28;20056;-73
2023/09/15 01:12:53;;;;;;;7.82;4.30;;;20.20;99.90;;;;;;5011663;28;20119;-72
2023/09/15 01:15:25;;;;;;;7.32;4.75;;;20.30;99.90;;;;;;5017257;28;20445;-71
2023/09/15 01:18:20;;;;;;;8.23;4.03;;;20.30;99.90;;;;;;4998242;28;20037;-72
2023/09/15 01:21:06;;;;;;;8.90;4.50;;;20.10;99.90;;;;;;5008078;28;20046;-73
2023/09/15 01:23:42;;;;;;;8.10;4.93;;;20.10;99.90;;;;;;5015546;28;20044;-74
2023/09/15 01:26:39;;;;;;;8.52;4.53;;;20.10;99.90;;;;;;5012368;28;20038;-72
2023/09/15 01:29:31;;;;;;;8.43;5.03;;;20.10;99.90;;;;;;4999240;28;20083;-72
2023/09/15 01:31:59;;;;;;;8.15;4.55;;;20.10;99.90;;;;;;5012044;28;20122;-71
2023/09/15 01:34:25;;;;;;;7.82;4.50;;;20.00;99.90;;;;;;5011704;28;20027;-71
2023/09/15 01:36:53;;;;;;;8.73;4.88;;;19.90;99.90;;;;;;5012198;28;20026;-72
2023/09/15 01:39:20;;;;;;;5.97;3.95;;;19.90;99.90;;;;;;4994408;28;20034;-70
2023/09/15 01:41:45;;;;;;;7.97;4.43;;;19.90;99.90;;;;;;5011852;28;20100;-71
2023/09/15 01:44:12;;;;;;;9.88;4.15;;;19.90;99.90;;;;;;5002043;28;20101;-73
2023/09/15 01:46:38;;;;;;;6.75;4.35;;;19.90;99.90;;;;;;4993029;28;20034;-75
2023/09/15 01:49:04;;;;;;;7.10;4.47;;;19.90;99.90;;;;;;4976827;28;20026;-76
2023/09/15 01:51:31;;;;;;;9.88;4.68;;;19.90;99.90;;;;;;4998248;28;20031;-73
2023/09/15 01:53:57;;;;;;;7.53;4.55;;;19.90;99.90;;;;;;5007046;28;20030;-75
2023/09/15 01:56:27;;;;;;;8.00;4.53;;;19.80;99.90;;;;;;4994187;28;20060;-73
2023/09/15 01:58:53;;;;;;;9.82;5.32;;;19.80;99.90;;;;;;4994126;28;20133;-73
2023/09/15 02:01:18;;;;;;;9.27;4.78;;;19.70;99.90;;;;;;4991252;28;20113;-75
2023/09/15 02:03:44;;;;;;;8.43;4.93;;;19.70;99.90;;;;;;4993784;28;20121;-72
2023/09/15 02:06:16;;;;;;;8.50;4.88;;;19.60;99.90;;;;;;5010646;28;20543;-73
2023/09/15 02:08:45;;;;;;;6.82;4.28;;;19.60;99.90;;;;;;4992957;28;20042;-72
2023/09/15 02:11:11;;;;;;;7.75;4.40;;;19.60;99.90;;;;;;4987172;28;20034;-70
2023/09/15 02:13:42;;;;;;;9.85;4.68;;;19.60;99.90;;;;;;4993484;28;20546;-71
2023/09/15 02:16:07;;;;;;;8.30;4.43;;;19.60;99.90;;;;;;4991624;28;20026;-72
2023/09/15 02:18:33;;;;;;;8.18;4.38;;;19.60;99.90;;;;;;5004943;28;20504;-73
2023/09/15 02:21:00;;;;;;;8.65;5.07;;;19.60;99.90;;;;;;5008655;28;20077;-71
2023/09/15 02:23:26;;;;;;;8.77;5.63;;;19.60;99.90;;;;;;5010292;28;20018;-71
2023/09/15 02:25:52;;;;;;;7.85;4.80;;;19.60;99.90;;;;;;5007370;28;20137;-74
2023/09/15 02:28:21;;;;;;;11.35;5.50;;;19.70;99.90;;;;;;5009647;28;20046;-71
2023/09/15 02:30:48;;;;;;;13.80;6.20;;;19.60;99.90;;;;;;5011245;28;20387;-71
2023/09/15 02:33:16;;;;;;;9.15;5.28;;;19.60;99.90;;;;;;4993458;28;20041;-71
2023/09/15 02:35:42;;;;;;;10.35;5.35;;;19.70;99.90;;;;;;4993784;28;20029;-73
2023/09/15 02:38:08;;;;;;;9.68;5.13;;;19.70;99.90;;;;;;5006834;28;20045;-71
2023/09/15 02:40:34;;;;;;;8.18;5.05;;;19.70;99.90;;;;;;5010620;28;20041;-72
2023/09/15 02:43:02;;;;;;;8.00;4.95;;;19.60;99.90;;;;;;5011197;28;20385;-71
2023/09/15 02:45:28;;;;;;;8.57;5.32;;;19.60;99.90;;;;;;5010740;28;20038;-72
2023/09/15 02:47:54;;;;;;;9.88;5.43;;;19.60;99.90;;;;;;5009640;28;20049;-71
2023/09/15 02:50:20;;;;;;;6.78;5.10;;;19.60;99.90;;;;;;4992748;28;20065;-72
2023/09/15 02:52:46;;;;;;;10.20;4.72;;;19.60;99.90;;;;;;5010306;28;20029;-70
2023/09/15 02:55:12;;;;;;;8.63;4.85;;;19.60;99.90;;;;;;4993170;28;20030;-71
2023/09/15 02:57:37;;;;;;;9.23;4.68;;;19.60;99.90;;;;;;5008084;28;20026;-72
2023/09/15 03:00:07;;;;;;;8.52;5.32;;;19.70;99.90;;;;;;4992349;28;20057;-73
2023/09/15 03:02:35;;;;;;;11.13;5.18;;;19.60;99.90;;;;;;5006587;28;20022;-72
2023/09/15 03:05:04;;;;;;;11.77;5.03;;;19.60;99.90;;;;;;5010747;28;20478;-72
2023/09/15 03:07:31;;;;;;;10.20;5.43;;;19.70;99.90;;;;;;4990419;28;20441;-74
2023/09/15 03:09:58;;;;;;;8.93;5.30;;;19.70;99.90;;;;;;4992702;28;20073;-72
2023/09/15 03:12:24;;;;;;;9.65;5.47;;;19.70;99.90;;;;;;4992745;28;20025;-71
2023/09/15 03:14:50;;;;;;;9.13;4.95;;;19.60;99.90;;;;;;5012150;28;20034;-71
2023/09/15 03:17:17;;;;;;;10.32;4.70;;;19.70;99.90;;;;;;4992643;28;20018;-70
2023/09/15 03:19:43;;;;;;;12.10;4.55;;;19.70;99.90;;;;;;4994397;28;20026;-71
2023/09/15 03:22:10;;;;;;;8.48;4.90;;;19.70;99.90;;;;;;4992676;28;20053;-71
2023/09/15 03:24:36;;;;;;;9.38;5.40;;;19.70;99.90;;;;;;4993163;28;20076;-71
2023/09/15 03:27:03;;;;;;;8.60;5.15;;;19.60;99.90;;;;;;5010318;28;20036;-71
2023/09/15 03:29:29;;;;;;;9.13;5.30;;;19.60;99.90;;;;;;4994250;28;20473;-74
2023/09/15 03:31:57;;;;;;;8.40;4.95;;;19.70;99.90;;;;;;4992648;28;20547;-71
2023/09/15 03:34:23;;;;;;;7.97;5.07;;;19.70;99.90;;;;;;4993792;28;20065;-71
2023/09/15 03:36:49;;;;;;;7.28;4.82;;;19.70;99.90;;;;;;5012196;28;20469;-70
2023/09/15 03:39:17;;;;;;;9.40;5.18;;;19.70;99.90;;;;;;4993654;28;20032;-71
2023/09/15 03:41:43;;;;;;;11.38;5.43;;;19.70;99.90;;;;;;4994381;28;20022;-71
2023/09/15 03:44:09;;;;;;;8.63;5.35;;;19.80;99.90;;;;;;4992055;28;20022;-72
2023/09/15 03:46:35;;;;;;;9.25;5.30;;;19.70;99.90;;;;;;5012019;28;20033;-72
2023/09/15 03:49:03;;;;;;;8.32;5.28;;;19.70;99.90;;;;;;4991369;28;20386;-71
2023/09/15 03:51:29;;;;;;;8.75;5.13;;;19.80;99.90;;;;;;4984840;28;20046;-72
2023/09/15 03:53:55;;;;;;;8.68;4.95;;;19.70;99.90;;;;;;5005024;28;20073;-71
2023/09/15 03:56:21;;;;;;;8.23;4.75;;;19.80;99.90;;;;;;4984176;28;20046;-74
2023/09/15 03:58:48;;;;;;;11.77;5.72;;;19.70;99.90;;;;;;4994034;28;20077;-71
2023/09/15 04:01:19;;;;;;;8.43;5.70;;;19.70;99.90;;;;;;4993527;28;20099;-71
2023/09/15 04:03:46;;;;;;;9.57;4.95;;;19.70;99.90;;;;;;4993360;28;20034;-73
2023/09/15 04:06:11;;;;;;;9.82;5.38;;;19.70;99.90;;;;;;4987415;28;20030;-72
2023/09/15 04:08:37;;;;;;;10.18;5.25;;;19.70;99.90;;;;;;4997006;28;20042;-72
2023/09/15 04:11:07;;;;;;;10.50;5.50;;;19.70;99.90;;;;;;4997371;28;20034;-72
2023/09/15 04:13:33;;;;;;;11.02;5.18;;;19.70;99.90;;;;;;5006570;28;20487;-71
2023/09/15 04:16:00;;;;;;;9.98;5.75;;;19.70;99.90;;;;;;5013103;28;20113;-75
2023/09/15 04:18:26;;;;;;;9.02;5.28;;;19.70;99.90;;;;;;5005340;28;20124;-73
2023/09/15 04:20:53;;;;;;;7.60;5.03;;;19.60;99.90;;;;;;4997135;28;20034;-72
2023/09/15 04:23:20;;;;;;;10.13;5.78;;;19.60;99.90;;;;;;4996491;28;20030;-73
2023/09/15 04:25:47;;;;;;;10.30;5.25;;;19.50;99.90;;;;;;4996830;28;20034;-75
2023/09/15 04:28:13;;;;;;;9.70;4.78;;;19.50;99.90;;;;;;4996880;28;20029;-74
2023/09/15 04:30:42;;;;;;;13.10;5.40;;;19.50;99.90;;;;;;4997392;28;20180;-74
2023/09/15 04:33:09;;;;;;;8.82;5.38;;;19.60;99.90;;;;;;4996969;28;20076;-72
2023/09/15 04:35:36;;;;;;;10.27;5.75;;;19.70;99.90;;;;;;4996089;28;20124;-73
2023/09/15 04:38:02;;;;;;;8.27;5.38;;;19.80;99.90;;;;;;5014734;28;20030;-74
2023/09/15 04:40:28;;;;;;;10.20;5.13;;;19.70;99.90;;;;;;4996337;28;20049;-73
2023/09/15 04:42:54;;;;;;;9.82;5.38;;;19.80;99.90;;;;;;4997093;28;20030;-72
2023/09/15 04:45:20;;;;;;;13.10;6.35;;;20.00;99.90;;;;;;4996606;28;20385;-73
2023/09/15 04:47:48;;;;;;;9.32;4.93;;;20.20;99.90;;;;;;4996889;28;20521;-72
2023/09/15 04:50:17;;;;;;;10.35;5.43;;;20.50;99.90;;;;;;4988595;28;20034;-73
2023/09/15 04:52:44;;;;;;;14.82;5.97;;;20.80;99.90;;;;;;4995883;28;20073;-75
2023/09/15 04:55:09;;;;;;;13.13;5.35;;;20.60;99.90;;;;;;4995869;28;20422;-74
2023/09/15 04:57:35;;;;;;;16.67;6.13;;;20.50;99.90;;;;;;4984585;28;20021;-72
2023/09/15 05:00:04;;;;;;;8.45;4.85;;;20.40;99.90;;;;;;4996776;28;20030;-75
2023/09/15 05:02:32;;;;;;;12.55;5.90;;;20.30;99.90;;;;;;4995886;28;20125;-73
2023/09/15 05:04:58;;;;;;;8.68;4.78;;;20.30;99.90;;;;;;4996623;28;20021;-72
2023/09/15 05:07:24;;;;;;;9.65;5.28;;;20.10;99.90;;;;;;4996073;28;20531;-73
2023/09/15 05:09:50;;;;;;;15.15;6.28;;;19.90;99.90;;;;;;4996475;28;20049;-73
2023/09/15 05:12:17;;;;;;;11.27;6.40;;;20.00;99.90;;;;;;4984351;28;20030;-74
2023/09/15 05:14:42;;;;;;;11.50;5.82;;;19.90;99.90;;;;;;5009603;28;20029;-73
2023/09/15 05:17:09;;;;;;;12.98;6.05;;;19.90;99.90;;;;;;4998801;28;20053;-72
2023/09/15 05:19:35;;;;;;;12.55;6.00;;;19.80;99.90;;;;;;4986170;28;20037;-73
2023/09/15 05:22:02;;;;;;;12.50;6.57;;;19.90;99.90;;;;;;4990843;28;20034;-75
2023/09/15 05:24:28;;;;;;;10.10;5.97;;;20.00;99.90;;;;;;5010662;28;20026;-73
2023/09/15 05:26:54;;;;;;;13.25;7.03;;;20.10;99.90;;;;;;4995295;28;20030;-72
2023/09/15 05:29:20;;;;;;;12.93;6.85;;;20.30;99.90;;;;;;5008103;28;20022;-74
2023/09/15 05:31:46;;;;;;;11.90;7.10;;;20.40;99.90;;;;;;5009874;28;20397;-74
2023/09/15 05:34:12;;;;;;;12.00;6.72;;;20.60;99.90;;;;;;4995752;28;20028;-73
2023/09/15 05:36:38;;;;;;;9.32;6.07;;;20.90;99.90;;;;;;4996271;28;20080;-73
2023/09/15 05:39:04;;;;;;;7.75;5.45;;;21.10;99.90;;;;;;5012651;28;20014;-73
2023/09/15 05:41:30;;;;;;;7.45;5.28;;;21.30;99.90;;;;;;4996262;28;20115;-75
2023/09/15 05:43:56;;;;;;;8.85;5.80;;;21.50;99.90;;;;;;5022563;28;20476;-72
2023/09/15 05:46:21;;;;;;;7.82;5.03;;;21.60;99.90;;;;;;5016824;28;20026;-73
2023/09/15 05:48:48;;;;;;;9.30;5.70;;;21.70;99.90;;;;;;5013327;28;20020;-73
2023/09/15 05:51:13;;;;;;;12.07;5.70;;;21.70;99.90;;;;;;5011924;28;20041;-75
2023/09/15 05:53:39;;;;;;;8.95;5.03;;;21.50;99.90;;;;;;5013095;28;20022;-75
2023/09/15 05:56:05;;;;;;;10.23;5.03;;;21.80;99.90;;;;;;5012782;28;20065;-73
2023/09/15 05:58:31;;;;;;;7.82;5.00;;;22.10;99.90;;;;;;5013319;28;20072;-73
2023/09/15 06:00:57;;;;;;;7.90;4.85;;;22.10;99.90;;;;;;5012557;28;20080;-72
2023/09/15 06:03:25;;;;;;;16.48;4.78;;;22.20;99.90;;;;;;5013338;28;20018;-73
2023/09/15 06:05:52;;;;;;;8.27;4.68;;;22.20;99.90;;;;;;5012641;28;20030;-73
2023/09/15 06:08:21;;;;;;;8.98;4.82;;;22.30;99.90;;;;;;5013002;28;20068;-74
2023/09/15 06:10:47;;;;;;;8.35;4.65;;;22.60;99.90;;;;;;5012686;28;20088;-74
2023/09/15 06:13:14;;;;;;;9.63;4.70;;;22.60;99.90;;;;;;5012928;28;20054;-74
2023/09/15 06:15:40;;;;;;;5.97;4.13;;;22.80;99.90;;;;;;5012712;28;20034;-75
2023/09/15 06:18:06;;;;;;;8.48;4.18;;;22.80;99.90;;;;;;5012718;28;20014;-74
2023/09/15 06:20:33;;;;;;;12.57;5.25;;;22.70;99.90;;;;;;5012910;28;20914;-75
2023/09/15 06:23:00;;;;;;;7.50;3.55;;;23.00;99.90;;;;;;5012651;28;20030;-75
2023/09/15 06:25:26;;;;;;;13.90;4.78;;;;;;;;;;5012721;28;20034;-75
2023/09/15 06:27:52;;;;;;;8.63;3.60;;;23.60;99.90;;;;;;5011479;28;20022;-75
2023/09/15 06:30:18;;;;;;;5.53;3.17;;;23.70;99.90;;;;;;5012918;28;20017;-72
2023/09/15 06:32:44;;;;;;;4.38;2.63;;;23.70;99.90;;;;;;5012341;28;20021;-72
2023/09/15 06:35:13;;;;;;;6.53;3.08;;;23.80;99.90;;;;;;5012526;28;20041;-73
2023/09/15 06:37:42;;;;;;;6.18;3.25;;;23.80;99.90;;;;;;5012420;28;20026;-73
2023/09/15 06:40:10;;;;;;;7.80;2.70;;;23.90;99.90;;;;;;5012129;28;20052;-74
2023/09/15 06:42:36;;;;;;;8.10;2.65;;;23.80;99.90;;;;;;5012642;28;20040;-71
2023/09/15 06:45:03;;;;;;;14.80;3.40;;;23.90;99.90;;;;;;5012456;28;20034;-73
2023/09/15 06:47:29;;;;;;;8.27;3.33;;;23.80;99.90;;;;;;5012456;28;20527;-72
2023/09/15 06:49:55;;;;;;;7.18;2.97;;;23.60;99.90;;;;;;5012143;28;20084;-73
2023/09/15 06:52:21;;;;;;;14.00;3.30;;;23.50;99.90;;;;;;5012254;28;20022;-73
2023/09/15 06:54:47;;;;;;;5.55;2.70;;;23.50;99.90;;;;;;5012027;28;20030;-73
2023/09/15 06:57:13;;;;;;;14.38;2.88;;;23.30;99.90;;;;;;5011993;28;20041;-72
2023/09/15 06:59:38;;;;;;;10.52;2.92;;;23.40;99.90;;;;;;5012451;28;20032;-73
2023/09/15 07:02:04;;;;;;;7.22;2.60;;;23.30;99.90;;;;;;5012061;28;20100;-72
2023/09/15 07:04:30;;;;;;;5.25;3.05;;;23.20;99.90;;;;;;5012336;28;20057;-73
2023/09/15 07:06:56;;;;;;;3.72;2.20;;;23.20;99.90;;;;;;5012120;28;20025;-74
2023/09/15 07:09:22;;;;;;;5.32;2.35;;;23.00;99.90;;;;;;5012146;28;20124;-72
2023/09/15 07:11:48;;;;;;;3.08;1.95;;;22.90;99.90;;;;;;5011791;28;20034;-73
2023/09/15 07:14:14;;;;;;;3.58;1.92;;;22.80;99.90;;;;;;5012047;28;20033;-73
2023/09/15 07:16:41;;;;;;;5.03;2.20;;;23.10;99.90;;;;;;5011570;28;20018;-74
2023/09/15 07:19:06;;;;;;;4.88;2.80;;;23.00;99.90;;;;;;5011938;28;20033;-73
2023/09/15 07:21:32;;;;;;;3.85;2.15;;;22.80;99.90;;;;;;5011712;28;20041;-74
2023/09/15 07:23:59;;;;;;;3.47;2.20;;;23.00;99.90;;;;;;5012371;28;20080;-74
2023/09/15 07:26:26;;;;;;;4.78;2.15;;;23.00;99.90;;;;;;5011728;28;20667;-73
2023/09/15 07:28:53;;;;;;;4.50;2.05;;;23.10;99.90;;;;;;5011845;28;20025;-74
2023/09/15 07:31:20;;;;;;;3.22;2.08;;;23.00;99.90;;;;;;5011744;28;20033;-74
2023/09/15 07:33:46;;;;;;;4.05;2.20;;;23.20;99.90;;;;;;5012227;28;20042;-74
2023/09/15 07:36:12;;;;;;;5.07;2.63;;;23.50;99.90;;;;;;5011621;28;20025;-74
2023/09/15 07:38:38;;;;;;;5.03;2.45;;;23.40;99.90;;;;;;5012059;28;20029;-75
2023/09/15 07:41:04;;;;;;;4.55;2.67;;;23.50;99.90;;;;;;5015475;28;20034;-73
2023/09/15 07:43:30;;;;;;;6.45;2.80;;;23.80;99.90;;;;;;5015689;28;20048;-75
2023/09/15 07:45:56;;;;;;;3.67;2.25;;;23.80;99.90;;;;;;5015696;28;20022;-72
2023/09/15 07:48:22;;;;;;;3.65;2.35;;;24.00;99.90;;;;;;5015394;28;20026;-73
2023/09/15 07:50:48;;;;;;;2.08;1.88;;;24.10;99.70;;;;;;5015137;28;20018;-72
2023/09/15 07:53:14;;;;;;;4.15;2.00;;;24.10;97.90;;;;;;5015608;28;20112;-73
2023/09/15 07:55:41;;;;;;;3.22;1.95;;;24.10;97.70;;;;;;5015141;28;20068;-72
2023/09/15 07:58:07;;;;;;;4.90;2.30;;;24.50;98.10;;;;;;5015358;28;20113;-74
2023/09/15 08:00:33;;;;;;;2.75;2.03;;;24.60;98.10;;;;;;5015072;28;20129;-74
2023/09/15 08:02:59;;;;;;;5.93;2.30;;;24.40;96.20;;;;;;5015441;28;20450;-73
2023/09/15 08:05:24;;;;;;;4.57;2.00;;;24.10;95.60;;;;;;5015080;28;20022;-74
2023/09/15 08:07:50;;;;;;;7.43;2.75;;;24.20;95.70;;;;;;5015307;28;20076;-74
2023/09/15 08:10:21;;;;;;;7.05;2.83;;;24.20;97.30;;;;;;5014539;28;20041;-73
2023/09/15 08:12:52;;;;;;;3.03;1.90;;;24.30;97.80;;;;;;5015400;28;20069;-73
2023/09/15 08:15:19;;;;;;;4.43;1.90;;;24.60;96.60;;;;;;5014740;28;20068;-74
2023/09/15 08:17:46;;;;;;;3.13;2.00;;;25.00;96.60;;;;;;5014963;28;20018;-73
2023/09/15 08:20:12;;;;;;;2.90;1.75;;;24.00;96.00;;;;;;5015017;28;20381;-74
2023/09/15 08:22:38;;;;;;;2.67;1.58;;;24.70;95.30;;;;;;5014819;28;20033;-74
2023/09/15 08:25:08;;;;;;;1.63;1.33;;;24.40;94.30;;;;;;5014780;28;20049;-73
2023/09/15 08:27:35;;;;;;;2.47;1.60;;;25.00;95.00;;;;;;5014612;28;20026;-72
2023/09/15 08:30:01;;;;;;;3.80;1.88;;;25.40;94.70;;;;;;5014821;28;20482;-74
2023/09/15 08:32:27;;;;;;;3.85;1.98;;;25.60;95.30;;;;;;5014854;28;20359;-73
2023/09/15 08:34:54;;;;;;;3.40;1.63;;;25.60;92.80;;;;;;4995377;28;20156;-73
2023/09/15 08:37:20;;;;;;;4.25;1.83;;;25.90;93.00;;;;;;5014760;28;20034;-74
2023/09/15 08:39:46;;;;;;;3.97;1.63;;;25.70;92.90;;;;;;5014217;28;20512;-73
2023/09/15 08:42:23;;;;;;;2.38;1.77;;;25.30;92.70;;;;;;5014772;28;20026;-73
2023/09/15 08:44:49;;;;;;;2.42;1.85;;;25.30;93.30;;;;;;5002818;28;20115;-73
2023/09/15 08:47:17;;;;;;;2.70;1.95;;;25.30;93.10;;;;;;5014507;28;20148;-73
2023/09/15 08:49:44;;;;;;;2.40;1.75;;;24.50;93.50;;;;;;5014427;28;20030;-74
2023/09/15 08:52:13;;;;;;;4.60;1.58;;;24.60;94.20;;;;;;5013098;28;20485;-72
2023/09/15 08:54:40;;;;;;;3.83;1.85;;;24.60;93.30;;;;;;5014665;28;20033;-74
2023/09/15 08:57:06;;;;;;;3.15;1.90;;;24.70;94.20;;;;;;5013893;28;20018;-72
2023/09/15 08:59:33;;;;;;;3.72;2.30;;;24.50;94.30;;;;;;5014362;28;20473;-74
2023/09/15 09:02:00;;;;;;;2.72;2.30;;;24.50;94.60;;;;;;5014051;28;20044;-73
2023/09/15 09:04:26;;;;;;;5.55;2.50;;;24.30;94.20;;;;;;5014307;28;20030;-74
2023/09/15 09:06:52;;;;;;;7.43;3.30;;;24.60;94.00;;;;;;5013443;28;20397;-72
2023/09/15 09:09:18;;;;;;;6.75;3.00;;;24.60;94.50;;;;;;5013995;28;20053;-71
2023/09/15 09:11:45;;;;;;;3.75;2.40;;;24.80;93.70;;;;;;5013352;28;20029;-73
2023/09/15 09:14:12;;;;;;;4.80;2.03;;;24.90;93.70;;;;;;5014005;28;20052;-74
2023/09/15 09:16:46;;;;;;;3.42;2.00;;;24.80;93.30;;;;;;5013772;28;20032;-74
2023/09/15 09:19:13;;;;;;;4.35;2.40;;;25.00;92.70;;;;;;5013638;28;20033;-74
2023/09/15 09:21:39;;;;;;;3.67;2.10;;;24.80;92.40;;;;;;5013831;28;20034;-73
2023/09/15 09:24:06;;;;;;;2.58;1.73;;;24.90;92.90;;;;;;5013170;28;20153;-72
2023/09/15 09:26:32;;;;;;;7.82;2.00;;;25.10;92.00;;;;;;5013641;28;20112;-72
2023/09/15 09:28:58;;;;;;;4.65;2.00;;;25.00;91.20;;;;;;5013729;28;20109;-72
2023/09/15 09:31:28;;;;;;;2.35;1.70;;;25.40;91.90;;;;;;5013467;28;20061;-72
2023/09/15 09:33:55;;;;;;;2.95;2.00;;;25.00;91.30;;;;;;5013646;28;20040;-71
2023/09/15 09:36:21;;;;;;;4.80;2.05;;;25.50;90.90;;;;;;5013674;28;20029;-72
2023/09/15 09:38:52;;;;;;;2.67;1.70;;;25.30;91.20;;;;;;5013557;28;20029;-74
2023/09/15 09:41:19;;;;;;;3.38;2.03;;;25.60;91.80;;;;;;5013219;28;20037;-72
2023/09/15 09:43:46;;;;;;;2.90;1.92;;;25.80;90.50;;;;;;5013433;28;20022;-72
2023/09/15 09:46:13;;;;;;;1.55;1.45;;;25.70;89.60;;;;;;5013364;28;20042;-73
2023/09/15 09:48:41;;;;;;;2.83;1.60;;;25.80;89.30;;;;;;5026371;28;20532;-72
2023/09/15 09:51:07;;;;;;;7.30;1.65;;;26.00;90.50;;;;;;4995270;28;20049;-74
2023/09/15 09:53:34;;;;;;;2.03;1.65;;;26.60;90.30;;;;;;5013109;28;20025;-73
2023/09/15 09:56:04;;;;;;;3.60;1.83;;;26.70;90.40;;;;;;5012949;28;20057;-74
2023/09/15 09:58:36;;;;;;;2.63;1.67;;;26.80;88.30;;;;;;5012516;28;20116;-72
2023/09/15 10:01:06;;;;;;;3.78;1.67;;;26.70;87.80;;;;;;5013147;28;20053;-73
2023/09/15 10:03:32;;;;;;;3.50;1.92;;;26.30;87.00;;;;;;5012512;28;20038;-73
2023/09/15 10:05:59;;;;;;;2.72;1.70;;;26.10;87.50;;;;;;5013157;28;20105;-73
2023/09/15 10:08:26;;;;;;;2.47;1.85;;;26.10;90.20;;;;;;5012584;28;20053;-72
2023/09/15 10:10:53;;;;;;;3.33;1.85;;;25.80;86.90;;;;;;5012816;28;20472;-72
2023/09/15 10:13:19;;;;;;;2.08;1.70;;;25.80;87.90;;;;;;5012583;28;20117;-73
2023/09/15 10:15:46;;;;;;;1.98;1.75;;;25.80;88.40;;;;;;5012714;28;20018;-73
2023/09/15 10:18:15;;;;;;;6.07;2.40;;;25.90;87.90;;;;;;5012829;28;20080;-72
2023/09/15 10:20:47;;;;;;;4.00;2.25;;;25.80;89.50;;;;;;5012996;28;20120;-74
2023/09/15 10:23:13;;;;;;;3.80;2.40;;;25.90;88.00;;;;;;5012893;28;20109;-74
2023/09/15 10:25:51;;;;;;;1.90;1.67;;;25.90;89.00;;;;;;5012665;28;20026;-74
2023/09/15 10:28:18;;;;;;;2.80;2.13;;;26.00;90.10;;;;;;4994721;28;20032;-74
2023/09/15 10:30:44;;;;;;;3.28;2.03;;;26.10;88.40;;;;;;5012801;28;20033;-73
2023/09/15 10:33:11;;;;;;;3.67;2.63;;;26.20;90.30;;;;;;5011932;28;20026;-73
2023/09/15 10:35:43;;;;;;;2.13;1.70;;;26.40;89.00;;;;;;5012341;28;20024;-72
2023/09/15 10:38:09;;;;;;;2.65;2.15;;;26.70;88.60;;;;;;5012210;28;20033;-73
2023/09/15 10:40:49;;;;;;;2.20;1.95;;;26.80;88.90;;;;;;5012473;28;20497;-73
2023/09/15 10:43:19;;;;;;;4.15;2.28;;;27.00;87.80;;;;;;5000827;28;20458;-75
2023/09/15 10:45:55;;;;;;;2.90;2.05;;;27.10;87.10;;;;;;5012021;28;20494;-73
2023/09/15 10:48:22;;;;;;;3.67;2.10;;;26.50;85.00;;;;;;5012502;28;20113;-74
2023/09/15 10:50:48;;;;;;;5.60;1.92;;;26.40;85.90;;;;;;5011940;28;20022;-73
2023/09/15 10:53:15;;;;;;;6.28;2.13;;;26.10;85.90;;;;;;5012507;28;20092;-73
2023/09/15 10:55:41;;;;;;;2.22;1.92;;;25.60;86.40;;;;;;5011782;28;20018;-73
2023/09/15 10:58:08;;;;;;;6.30;2.10;;;25.80;88.80;;;;;;5012277;28;20037;-74
2023/09/15 11:00:35;;;;;;;3.63;2.20;;;25.60;88.20;;;;;;5011798;28;20500;-73
2023/09/15 11:03:03;;;;;;;4.75;2.03;;;25.50;89.50;;;;;;5011923;28;20402;-73
2023/09/15 11:05:29;;;;;;;2.65;1.90;;;25.50;88.40;;;;;;5012312;28;20045;-73
2023/09/15 11:07:57;;;;;;;3.15;2.15;;;25.40;88.40;;;;;;5011925;28;20575;-73
2023/09/15 11:10:32;;;;;;;2.50;1.63;;;25.60;88.10;;;;;;5011902;28;20133;-74
2023/09/15 11:13:03;;;;;;;3.13;2.10;;;25.70;88.60;;;;;;5012072;28;20021;-74
2023/09/15 11:15:29;;;;;;;4.30;1.90;;;25.70;88.30;;;;;;5018220;28;20492;-73
2023/09/15 11:17:56;;;;;;;5.10;2.30;;;25.40;86.30;;;;;;5018369;28;20026;-73
2023/09/15 11:20:22;;;;;;;4.85;2.10;;;25.70;88.10;;;;;;5018803;28;20082;-72
2023/09/15 11:22:53;;;;;;;4.18;2.55;;;26.10;88.30;;;;;;5018288;28;20492;-73
2023/09/15 11:25:19;;;;;;;2.20;1.70;;;26.10;85.30;;;;;;5000882;28;20030;-74
2023/09/15 11:27:49;;;;;;;2.47;1.80;;;26.20;85.40;;;;;;5018554;28;20030;-74
2023/09/15 11:30:16;;;;;;;4.28;2.05;;;26.20;85.70;;;;;;5018340;28;20113;-74
2023/09/15 11:32:42;;;;;;;4.68;2.35;;;26.30;85.00;;;;;;5018612;28;20432;-73
2023/09/15 11:35:11;;;;;;;3.15;1.90;;;26.30;84.50;;;;;;5018307;28;20038;-73
2023/09/15 11:37:40;;;;;;;2.50;2.25;;;26.20;84.00;;;;;;5018072;28;20500;-72
2023/09/15 11:40:07;;;;;;;4.13;2.25;;;26.30;85.20;;;;;;5018641;28;20045;-73
2023/09/15 11:42:33;;;;;;;2.53;1.90;;;26.20;84.70;;;;;;5018234;28;20022;-73
2023/09/15 11:45:00;;;;;;;4.13;2.25;;;26.40;85.00;;;;;;5018420;28;20036;-73
2023/09/15 11:47:31;;;;;;;3.00;1.92;;;26.20;84.40;;;;;;5000170;28;20362;-73
2023/09/15 11:50:00;;;;;;;2.75;2.38;;;26.30;83.90;;;;;;5018730;28;20076;-74
2023/09/15 11:52:27;;;;;;;3.28;2.10;;;26.40;84.00;;;;;;5017894;28;20037;-74
2023/09/15 11:54:53;;;;;;;3.17;2.53;;;26.60;83.20;;;;;;5018333;28;20109;-73
2023/09/15 11:57:20;;;;;;;2.67;2.17;;;26.60;82.40;;;;;;5018142;28;20101;-72
2023/09/15 11:59:46;;;;;;;3.15;2.13;;;26.40;82.40;;;;;;5017942;28;20034;-73
2023/09/15 12:02:17;;;;;;;3.13;2.10;;;26.40;82.00;;;;;;5017993;28;20512;-72
2023/09/15 12:04:43;;;;;;;4.40;3.08;;;26.50;82.00;;;;;;5018017;28;20528;-72
2023/09/15 12:07:09;;;;;;;4.43;2.28;;;26.50;82.80;;;;;;5018063;28;20049;-72
2023/09/15 12:09:35;;;;;;;4.07;2.20;;;26.40;82.20;;;;;;5017988;28;20037;-74
2023/09/15 12:12:01;;;;;;;2.47;1.80;;;26.30;81.90;;;;;;5018245;28;20120;-73
2023/09/15 12:14:27;;;;;;;2.42;1.90;;;26.30;81.50;;;;;;5018208;28;20030;-73
2023/09/15 12:16:57;;;;;;;2.90;1.60;;;26.30;85.70;;;;;;5017987;28;20025;-73
2023/09/15 12:19:23;;;;;;;4.45;2.08;;;26.40;82.80;;;;;;5018266;28;20038;-73
2023/09/15 12:21:53;;;;;;;2.45;1.70;;;26.40;81.60;;;;;;5017200;28;20400;-74
2023/09/15 12:24:20;;;;;;;3.40;1.67;;;26.40;80.60;;;;;;5018199;28;20029;-74
2023/09/15 12:26:46;;;;;;;3.55;1.88;;;26.40;81.50;;;;;;5014822;28;20041;-73
2023/09/15 12:29:12;;;;;;;5.57;2.17;;;26.40;80.30;;;;;;5014773;28;20474;-74
2023/09/15 12:31:44;;;;;;;2.83;1.88;;;26.60;81.00;;;;;;5014845;28;20029;-74
2023/09/15 12:34:18;;;;;;;;;;;26.70;80.90;;;;;;5015080;28;20426;-74
2023/09/15 12:36:46;;;;;;;1.80;1.70;;;26.70;80.80;;;;;;5014868;28;19996;-73
2023/09/15 12:39:12;;;;;;;2.40;1.88;;;26.80;80.50;;;;;;5014547;28;20454;-73
2023/09/15 12:41:37;;;;;;;2.35;1.83;;;26.80;81.90;;;;;;5014610;28;20022;-74
2023/09/15 12:44:03;;;;;;;3.05;1.55;;;26.70;79.80;;;;;;5014250;28;20532;-75
2023/09/15 12:46:29;;;;;;;3.58;1.60;;;26.60;79.30;;;;;;5014870;28;20113;-73